sensor_id;sensor_type;location;lat;lon;timestamp;temperature;humidity
55771;DHT22;41687;-33.234;-60.334;2023-01-24T00:01:20;29.40;48.60
55771;DHT22;41687;-33.234;-60.334;2023-01-24T00:03:48;29.40;48.50
55771;DHT22;41687;-33.234;-60.334;2023-01-24T00:06:16;29.30;48.40
55771;DHT22;41687;-33.234;-60.334;2023-01-24T00:08:44;29.30;48.50
55771;DHT22;41687;-33.234;-60.334;2023-01-24T00:11:13;29.20;48.80
55771;DHT22;41687;-33.234;-60.334;2023-01-24T00:13:41;29.20;49.10
55771;DHT22;41687;-33.234;-60.334;2023-01-24T00:16:20;29.20;49.30
55771;DHT22;41687;-33.234;-60.334;2023-01-24T00:18:49;29.10;50.50
55771;DHT22;41687;-33.234;-60.334;2023-01-24T00:21:21;29.00;49.50
55771;DHT22;41687;-33.234;-60.334;2023-01-24T00:23:51;29.00;50.50
55771;DHT22;41687;-33.234;-60.334;2023-01-24T00:26:20;28.90;51.00
55771;DHT22;41687;-33.234;-60.334;2023-01-24T00:29:08;28.80;50.60
55771;DHT22;41687;-33.234;-60.334;2023-01-24T00:31:38;28.70;53.40
55771;DHT22;41687;-33.234;-60.334;2023-01-24T00:34:06;28.70;51.60
55771;DHT22;41687;-33.234;-60.334;2023-01-24T00:36:37;28.60;51.40
55771;DHT22;41687;-33.234;-60.334;2023-01-24T00:39:05;28.50;51.40
55771;DHT22;41687;-33.234;-60.334;2023-01-24T00:41:33;28.50;51.20
55771;DHT22;41687;-33.234;-60.334;2023-01-24T00:44:01;28.40;51.00
55771;DHT22;41687;-33.234;-60.334;2023-01-24T00:46:29;28.30;51.30
55771;DHT22;41687;-33.234;-60.334;2023-01-24T00:48:57;28.20;51.00
55771;DHT22;41687;-33.234;-60.334;2023-01-24T00:51:27;28.20;50.80
55771;DHT22;41687;-33.234;-60.334;2023-01-24T00:53:54;28.10;51.10
55771;DHT22;41687;-33.234;-60.334;2023-01-24T00:56:22;28.00;50.90
55771;DHT22;41687;-33.234;-60.334;2023-01-24T00:58:51;27.90;50.60
55771;DHT22;41687;-33.234;-60.334;2023-01-24T01:01:20;27.80;50.90
55771;DHT22;41687;-33.234;-60.334;2023-01-24T01:03:47;27.80;50.60
55771;DHT22;41687;-33.234;-60.334;2023-01-24T01:06:16;27.70;50.60
55771;DHT22;41687;-33.234;-60.334;2023-01-24T01:08:44;27.60;50.40
55771;DHT22;41687;-33.234;-60.334;2023-01-24T01:11:13;27.50;50.90
55771;DHT22;41687;-33.234;-60.334;2023-01-24T01:13:41;27.50;50.60
55771;DHT22;41687;-33.234;-60.334;2023-01-24T01:16:12;27.30;50.40
55771;DHT22;41687;-33.234;-60.334;2023-01-24T01:18:40;27.20;50.30
55771;DHT22;41687;-33.234;-60.334;2023-01-24T01:21:12;27.20;49.90
55771;DHT22;41687;-33.234;-60.334;2023-01-24T01:23:41;27.10;49.80
55771;DHT22;41687;-33.234;-60.334;2023-01-24T01:26:15;27.10;49.50
55771;DHT22;41687;-33.234;-60.334;2023-01-24T01:28:43;27.00;49.40
55771;DHT22;41687;-33.234;-60.334;2023-01-24T01:31:14;26.90;49.30
55771;DHT22;41687;-33.234;-60.334;2023-01-24T01:33:45;26.90;49.10
55771;DHT22;41687;-33.234;-60.334;2023-01-24T01:36:13;26.80;49.00
55771;DHT22;41687;-33.234;-60.334;2023-01-24T01:38:41;26.70;48.50
55771;DHT22;41687;-33.234;-60.334;2023-01-24T01:41:12;26.70;48.70
55771;DHT22;41687;-33.234;-60.334;2023-01-24T01:43:41;26.60;48.80
55771;DHT22;41687;-33.234;-60.334;2023-01-24T01:46:34;26.60;49.10
55771;DHT22;41687;-33.234;-60.334;2023-01-24T01:49:06;26.50;48.90
55771;DHT22;41687;-33.234;-60.334;2023-01-24T01:51:45;26.50;48.60
55771;DHT22;41687;-33.234;-60.334;2023-01-24T01:54:31;26.40;48.90
55771;DHT22;41687;-33.234;-60.334;2023-01-24T01:59:43;26.30;48.20
55771;DHT22;41687;-33.234;-60.334;2023-01-24T02:02:12;26.30;48.00
55771;DHT22;41687;-33.234;-60.334;2023-01-24T02:04:44;26.20;47.80
55771;DHT22;41687;-33.234;-60.334;2023-01-24T02:07:24;26.20;47.50
55771;DHT22;41687;-33.234;-60.334;2023-01-24T02:09:55;26.20;47.50
55771;DHT22;41687;-33.234;-60.334;2023-01-24T02:12:33;26.00;47.40
55771;DHT22;41687;-33.234;-60.334;2023-01-24T02:15:10;26.00;46.90
55771;DHT22;41687;-33.234;-60.334;2023-01-24T02:17:57;26.10;46.60
55771;DHT22;41687;-33.234;-60.334;2023-01-24T02:28:39;26.00;46.80
55771;DHT22;41687;-33.234;-60.334;2023-01-24T02:31:08;25.90;46.70
55771;DHT22;41687;-33.234;-60.334;2023-01-24T02:33:35;25.90;46.90
55771;DHT22;41687;-33.234;-60.334;2023-01-24T02:36:27;25.80;46.60
55771;DHT22;41687;-33.234;-60.334;2023-01-24T02:39:04;25.80;46.70
55771;DHT22;41687;-33.234;-60.334;2023-01-24T02:41:53;25.80;46.30
55771;DHT22;41687;-33.234;-60.334;2023-01-24T02:44:51;25.80;46.30
55771;DHT22;41687;-33.234;-60.334;2023-01-24T02:47:21;25.80;46.60
55771;DHT22;41687;-33.234;-60.334;2023-01-24T02:49:49;25.70;46.30
55771;DHT22;41687;-33.234;-60.334;2023-01-24T02:52:17;25.60;46.40
55771;DHT22;41687;-33.234;-60.334;2023-01-24T02:55:04;25.70;46.50
55771;DHT22;41687;-33.234;-60.334;2023-01-24T02:57:31;25.50;46.20
55771;DHT22;41687;-33.234;-60.334;2023-01-24T03:00:18;25.50;46.60
55771;DHT22;41687;-33.234;-60.334;2023-01-24T03:02:46;25.50;46.60
55771;DHT22;41687;-33.234;-60.334;2023-01-24T03:05:14;25.50;46.50
55771;DHT22;41687;-33.234;-60.334;2023-01-24T03:07:42;25.50;46.70
55771;DHT22;41687;-33.234;-60.334;2023-01-24T03:10:16;25.40;46.50
55771;DHT22;41687;-33.234;-60.334;2023-01-24T03:12:49;25.30;46.50
55771;DHT22;41687;-33.234;-60.334;2023-01-24T03:15:36;25.30;46.70
55771;DHT22;41687;-33.234;-60.334;2023-01-24T03:18:22;25.10;46.50
55771;DHT22;41687;-33.234;-60.334;2023-01-24T03:21:09;25.10;46.90
55771;DHT22;41687;-33.234;-60.334;2023-01-24T03:23:55;25.10;46.90
55771;DHT22;41687;-33.234;-60.334;2023-01-24T03:26:41;25.10;46.80
55771;DHT22;41687;-33.234;-60.334;2023-01-24T03:29:27;25.10;46.60
55771;DHT22;41687;-33.234;-60.334;2023-01-24T03:32:13;25.20;46.70
55771;DHT22;41687;-33.234;-60.334;2023-01-24T03:35:00;25.10;46.80
55771;DHT22;41687;-33.234;-60.334;2023-01-24T03:37:31;25.10;46.60
55771;DHT22;41687;-33.234;-60.334;2023-01-24T03:40:18;25.00;46.80
55771;DHT22;41687;-33.234;-60.334;2023-01-24T03:42:47;25.00;46.40
55771;DHT22;41687;-33.234;-60.334;2023-01-24T03:45:23;25.00;46.10
55771;DHT22;41687;-33.234;-60.334;2023-01-24T03:47:54;25.00;46.40
55771;DHT22;41687;-33.234;-60.334;2023-01-24T03:50:39;25.00;46.10
55771;DHT22;41687;-33.234;-60.334;2023-01-24T03:53:29;25.00;46.00
55771;DHT22;41687;-33.234;-60.334;2023-01-24T03:56:00;25.00;46.00
55771;DHT22;41687;-33.234;-60.334;2023-01-24T03:58:36;24.90;46.00
55771;DHT22;41687;-33.234;-60.334;2023-01-24T04:01:07;25.00;45.90
55771;DHT22;41687;-33.234;-60.334;2023-01-24T04:04:07;25.00;45.90
55771;DHT22;41687;-33.234;-60.334;2023-01-24T04:06:35;24.90;45.80
55771;DHT22;41687;-33.234;-60.334;2023-01-24T04:09:06;24.90;46.20
55771;DHT22;41687;-33.234;-60.334;2023-01-24T04:11:37;24.70;46.10
55771;DHT22;41687;-33.234;-60.334;2023-01-24T04:14:11;24.80;46.50
55771;DHT22;41687;-33.234;-60.334;2023-01-24T04:16:52;24.60;46.40
55771;DHT22;41687;-33.234;-60.334;2023-01-24T04:19:25;24.60;46.40
55771;DHT22;41687;-33.234;-60.334;2023-01-24T04:21:54;24.70;46.60
55771;DHT22;41687;-33.234;-60.334;2023-01-24T04:24:24;24.70;46.40
55771;DHT22;41687;-33.234;-60.334;2023-01-24T04:26:52;24.70;46.70
55771;DHT22;41687;-33.234;-60.334;2023-01-24T04:29:27;24.60;46.60
55771;DHT22;41687;-33.234;-60.334;2023-01-24T04:31:59;24.60;46.70
55771;DHT22;41687;-33.234;-60.334;2023-01-24T04:34:45;24.60;46.90
55771;DHT22;41687;-33.234;-60.334;2023-01-24T04:37:21;24.40;46.90
55771;DHT22;41687;-33.234;-60.334;2023-01-24T04:39:51;24.40;46.70
55771;DHT22;41687;-33.234;-60.334;2023-01-24T04:42:19;24.40;47.20
55771;DHT22;41687;-33.234;-60.334;2023-01-24T04:44:47;24.40;46.90
55771;DHT22;41687;-33.234;-60.334;2023-01-24T04:47:15;24.30;47.00
55771;DHT22;41687;-33.234;-60.334;2023-01-24T04:49:43;24.30;47.40
55771;DHT22;41687;-33.234;-60.334;2023-01-24T04:52:16;24.20;47.40
55771;DHT22;41687;-33.234;-60.334;2023-01-24T04:54:52;24.20;47.30
55771;DHT22;41687;-33.234;-60.334;2023-01-24T04:57:21;24.10;47.60
55771;DHT22;41687;-33.234;-60.334;2023-01-24T04:59:49;24.00;47.60
55771;DHT22;41687;-33.234;-60.334;2023-01-24T05:02:18;23.80;48.10
55771;DHT22;41687;-33.234;-60.334;2023-01-24T05:04:47;23.80;48.10
55771;DHT22;41687;-33.234;-60.334;2023-01-24T05:07:16;23.80;48.10
55771;DHT22;41687;-33.234;-60.334;2023-01-24T05:09:49;23.80;48.20
55771;DHT22;41687;-33.234;-60.334;2023-01-24T05:12:17;23.70;48.20
55771;DHT22;41687;-33.234;-60.334;2023-01-24T05:14:45;23.70;48.90
55771;DHT22;41687;-33.234;-60.334;2023-01-24T05:17:13;23.70;48.50
55771;DHT22;41687;-33.234;-60.334;2023-01-24T05:19:41;23.80;48.20
55771;DHT22;41687;-33.234;-60.334;2023-01-24T05:22:09;23.80;48.30
55771;DHT22;41687;-33.234;-60.334;2023-01-24T05:24:41;23.70;48.20
55771;DHT22;41687;-33.234;-60.334;2023-01-24T05:27:10;23.70;48.40
55771;DHT22;41687;-33.234;-60.334;2023-01-24T05:29:42;23.60;48.60
55771;DHT22;41687;-33.234;-60.334;2023-01-24T05:32:11;23.60;48.90
55771;DHT22;41687;-33.234;-60.334;2023-01-24T05:34:38;23.40;48.80
55771;DHT22;41687;-33.234;-60.334;2023-01-24T05:37:08;23.40;49.60
55771;DHT22;41687;-33.234;-60.334;2023-01-24T05:39:39;23.40;49.10
55771;DHT22;41687;-33.234;-60.334;2023-01-24T05:42:08;23.30;49.40
55771;DHT22;41687;-33.234;-60.334;2023-01-24T05:44:42;23.30;49.90
55771;DHT22;41687;-33.234;-60.334;2023-01-24T05:47:12;23.30;49.60
55771;DHT22;41687;-33.234;-60.334;2023-01-24T05:49:42;23.30;49.10
55771;DHT22;41687;-33.234;-60.334;2023-01-24T05:52:10;23.10;49.70
55771;DHT22;41687;-33.234;-60.334;2023-01-24T05:54:50;23.10;49.60
55771;DHT22;41687;-33.234;-60.334;2023-01-24T05:57:29;23.10;49.70
55771;DHT22;41687;-33.234;-60.334;2023-01-24T06:00:16;23.00;49.60
55771;DHT22;41687;-33.234;-60.334;2023-01-24T06:03:05;23.00;49.20
55771;DHT22;41687;-33.234;-60.334;2023-01-24T06:05:34;23.20;49.00
55771;DHT22;41687;-33.234;-60.334;2023-01-24T06:08:04;23.20;48.90
55771;DHT22;41687;-33.234;-60.334;2023-01-24T06:10:33;23.10;49.10
55771;DHT22;41687;-33.234;-60.334;2023-01-24T06:13:08;23.10;49.20
55771;DHT22;41687;-33.234;-60.334;2023-01-24T06:15:36;23.20;49.30
55771;DHT22;41687;-33.234;-60.334;2023-01-24T06:18:06;23.10;49.50
55771;DHT22;41687;-33.234;-60.334;2023-01-24T06:20:34;23.00;49.50
55771;DHT22;41687;-33.234;-60.334;2023-01-24T06:23:06;22.80;50.50
55771;DHT22;41687;-33.234;-60.334;2023-01-24T06:25:39;22.70;50.10
55771;DHT22;41687;-33.234;-60.334;2023-01-24T06:28:09;22.80;49.70
55771;DHT22;41687;-33.234;-60.334;2023-01-24T06:30:39;23.00;50.20
55771;DHT22;41687;-33.234;-60.334;2023-01-24T06:33:41;22.70;50.40
55771;DHT22;41687;-33.234;-60.334;2023-01-24T06:36:42;22.80;51.10
55771;DHT22;41687;-33.234;-60.334;2023-01-24T06:39:15;22.70;50.60
55771;DHT22;41687;-33.234;-60.334;2023-01-24T06:41:43;22.80;50.70
55771;DHT22;41687;-33.234;-60.334;2023-01-24T06:44:11;22.50;50.20
55771;DHT22;41687;-33.234;-60.334;2023-01-24T06:46:39;22.50;50.60
55771;DHT22;41687;-33.234;-60.334;2023-01-24T06:49:09;22.40;50.60
55771;DHT22;41687;-33.234;-60.334;2023-01-24T06:51:37;22.50;50.20
55771;DHT22;41687;-33.234;-60.334;2023-01-24T06:54:04;22.60;50.10
55771;DHT22;41687;-33.234;-60.334;2023-01-24T06:56:34;22.50;50.10
55771;DHT22;41687;-33.234;-60.334;2023-01-24T06:59:01;22.50;50.00
55771;DHT22;41687;-33.234;-60.334;2023-01-24T07:01:29;22.40;49.90
55771;DHT22;41687;-33.234;-60.334;2023-01-24T07:03:57;22.20;50.40
55771;DHT22;41687;-33.234;-60.334;2023-01-24T07:06:25;22.30;50.40
55771;DHT22;41687;-33.234;-60.334;2023-01-24T07:08:53;22.20;50.60
55771;DHT22;41687;-33.234;-60.334;2023-01-24T07:11:21;22.30;50.60
55771;DHT22;41687;-33.234;-60.334;2023-01-24T07:13:50;22.40;50.10
55771;DHT22;41687;-33.234;-60.334;2023-01-24T07:16:18;22.40;50.00
55771;DHT22;41687;-33.234;-60.334;2023-01-24T07:18:46;22.40;50.50
55771;DHT22;41687;-33.234;-60.334;2023-01-24T07:21:15;22.40;50.10
55771;DHT22;41687;-33.234;-60.334;2023-01-24T07:23:48;22.40;50.30
55771;DHT22;41687;-33.234;-60.334;2023-01-24T07:26:17;22.40;50.50
55771;DHT22;41687;-33.234;-60.334;2023-01-24T07:28:44;22.40;50.30
55771;DHT22;41687;-33.234;-60.334;2023-01-24T07:31:13;22.50;50.40
55771;DHT22;41687;-33.234;-60.334;2023-01-24T07:33:41;22.50;50.50
55771;DHT22;41687;-33.234;-60.334;2023-01-24T07:36:14;22.60;50.40
55771;DHT22;41687;-33.234;-60.334;2023-01-24T07:38:42;22.60;51.10
55771;DHT22;41687;-33.234;-60.334;2023-01-24T07:41:10;22.50;51.00
55771;DHT22;41687;-33.234;-60.334;2023-01-24T07:43:38;22.50;50.50
55771;DHT22;41687;-33.234;-60.334;2023-01-24T07:46:06;22.50;50.50
55771;DHT22;41687;-33.234;-60.334;2023-01-24T07:48:34;22.50;50.50
55771;DHT22;41687;-33.234;-60.334;2023-01-24T07:51:02;22.60;50.40
55771;DHT22;41687;-33.234;-60.334;2023-01-24T07:53:30;22.60;50.30
55771;DHT22;41687;-33.234;-60.334;2023-01-24T07:56:00;22.60;50.30
55771;DHT22;41687;-33.234;-60.334;2023-01-24T07:58:28;22.60;50.30
55771;DHT22;41687;-33.234;-60.334;2023-01-24T08:00:56;22.60;50.20
55771;DHT22;41687;-33.234;-60.334;2023-01-24T08:03:24;22.70;50.30
55771;DHT22;41687;-33.234;-60.334;2023-01-24T08:05:51;22.70;50.20
55771;DHT22;41687;-33.234;-60.334;2023-01-24T08:08:20;22.70;50.40
55771;DHT22;41687;-33.234;-60.334;2023-01-24T08:10:47;22.50;51.00
55771;DHT22;41687;-33.234;-60.334;2023-01-24T08:13:15;22.50;50.80
55771;DHT22;41687;-33.234;-60.334;2023-01-24T08:15:43;22.50;50.70
55771;DHT22;41687;-33.234;-60.334;2023-01-24T08:18:10;22.50;50.80
55771;DHT22;41687;-33.234;-60.334;2023-01-24T08:20:38;22.60;50.70
55771;DHT22;41687;-33.234;-60.334;2023-01-24T08:23:06;22.50;50.80
55771;DHT22;41687;-33.234;-60.334;2023-01-24T08:25:34;22.50;50.70
55771;DHT22;41687;-33.234;-60.334;2023-01-24T08:28:02;22.40;50.80
55771;DHT22;41687;-33.234;-60.334;2023-01-24T08:30:29;22.40;50.90
55771;DHT22;41687;-33.234;-60.334;2023-01-24T08:33:06;22.30;51.00
55771;DHT22;41687;-33.234;-60.334;2023-01-24T08:35:34;22.30;51.60
55771;DHT22;41687;-33.234;-60.334;2023-01-24T08:38:03;22.40;51.10
55771;DHT22;41687;-33.234;-60.334;2023-01-24T08:40:31;22.40;51.00
55771;DHT22;41687;-33.234;-60.334;2023-01-24T08:43:01;22.50;50.80
55771;DHT22;41687;-33.234;-60.334;2023-01-24T08:45:30;22.50;50.90
55771;DHT22;41687;-33.234;-60.334;2023-01-24T08:47:57;22.50;51.00
55771;DHT22;41687;-33.234;-60.334;2023-01-24T08:50:26;22.40;51.00
55771;DHT22;41687;-33.234;-60.334;2023-01-24T08:52:57;22.40;50.70
55771;DHT22;41687;-33.234;-60.334;2023-01-24T08:55:25;22.20;51.10
55771;DHT22;41687;-33.234;-60.334;2023-01-24T08:57:58;22.20;50.80
55771;DHT22;41687;-33.234;-60.334;2023-01-24T09:00:26;22.20;50.90
55771;DHT22;41687;-33.234;-60.334;2023-01-24T09:02:54;22.20;50.80
55771;DHT22;41687;-33.234;-60.334;2023-01-24T09:05:21;22.20;51.00
55771;DHT22;41687;-33.234;-60.334;2023-01-24T09:07:49;22.20;50.80
55771;DHT22;41687;-33.234;-60.334;2023-01-24T09:10:17;22.20;50.80
55771;DHT22;41687;-33.234;-60.334;2023-01-24T09:12:45;22.10;50.90
55771;DHT22;41687;-33.234;-60.334;2023-01-24T09:15:13;22.10;50.70
55771;DHT22;41687;-33.234;-60.334;2023-01-24T09:17:40;22.10;50.80
55771;DHT22;41687;-33.234;-60.334;2023-01-24T09:20:10;22.10;50.60
55771;DHT22;41687;-33.234;-60.334;2023-01-24T09:22:38;21.90;51.40
55771;DHT22;41687;-33.234;-60.334;2023-01-24T09:25:07;21.90;50.90
55771;DHT22;41687;-33.234;-60.334;2023-01-24T09:27:35;22.00;51.30
55771;DHT22;41687;-33.234;-60.334;2023-01-24T09:30:05;21.80;51.40
55771;DHT22;41687;-33.234;-60.334;2023-01-24T09:32:32;21.80;51.50
55771;DHT22;41687;-33.234;-60.334;2023-01-24T09:35:00;21.90;51.60
55771;DHT22;41687;-33.234;-60.334;2023-01-24T09:37:28;21.80;51.80
55771;DHT22;41687;-33.234;-60.334;2023-01-24T09:39:56;21.70;51.70
55771;DHT22;41687;-33.234;-60.334;2023-01-24T09:42:41;21.80;51.50
55771;DHT22;41687;-33.234;-60.334;2023-01-24T09:48:00;21.80;53.00
55771;DHT22;41687;-33.234;-60.334;2023-01-24T09:53:05;21.90;52.40
55771;DHT22;41687;-33.234;-60.334;2023-01-24T09:55:40;21.90;52.30
55771;DHT22;41687;-33.234;-60.334;2023-01-24T09:58:34;21.90;53.00
55771;DHT22;41687;-33.234;-60.334;2023-01-24T10:01:07;21.90;53.50
55771;DHT22;41687;-33.234;-60.334;2023-01-24T10:03:37;22.00;52.30
55771;DHT22;41687;-33.234;-60.334;2023-01-24T10:06:16;22.00;52.30
55771;DHT22;41687;-33.234;-60.334;2023-01-24T10:14:53;22.10;54.00
55771;DHT22;41687;-33.234;-60.334;2023-01-24T10:17:50;22.10;53.60
55771;DHT22;41687;-33.234;-60.334;2023-01-24T10:23:11;22.20;53.50
55771;DHT22;41687;-33.234;-60.334;2023-01-24T10:25:45;22.30;53.80
55771;DHT22;41687;-33.234;-60.334;2023-01-24T10:28:26;22.30;53.30
55771;DHT22;41687;-33.234;-60.334;2023-01-24T10:31:14;22.30;53.80
55771;DHT22;41687;-33.234;-60.334;2023-01-24T10:33:45;22.40;54.10
55771;DHT22;41687;-33.234;-60.334;2023-01-24T10:39:27;22.40;54.20
55771;DHT22;41687;-33.234;-60.334;2023-01-24T10:41:55;22.60;53.30
55771;DHT22;41687;-33.234;-60.334;2023-01-24T10:44:29;22.60;53.30
55771;DHT22;41687;-33.234;-60.334;2023-01-24T10:49:38;22.90;53.00
55771;DHT22;41687;-33.234;-60.334;2023-01-24T10:52:18;23.00;53.60
55771;DHT22;41687;-33.234;-60.334;2023-01-24T10:55:01;23.10;53.60
55771;DHT22;41687;-33.234;-60.334;2023-01-24T10:57:43;23.20;53.90
55771;DHT22;41687;-33.234;-60.334;2023-01-24T11:03:15;23.20;53.70
55771;DHT22;41687;-33.234;-60.334;2023-01-24T11:05:50;23.30;54.00
55771;DHT22;41687;-33.234;-60.334;2023-01-24T11:08:33;23.40;53.50
55771;DHT22;41687;-33.234;-60.334;2023-01-24T11:11:15;23.60;54.30
55771;DHT22;41687;-33.234;-60.334;2023-01-24T11:13:44;23.80;53.30
55771;DHT22;41687;-33.234;-60.334;2023-01-24T11:21:20;23.30;55.50
55771;DHT22;41687;-33.234;-60.334;2023-01-24T11:26:40;24.00;55.70
55771;DHT22;41687;-33.234;-60.334;2023-01-24T11:29:19;24.10;55.10
55771;DHT22;41687;-33.234;-60.334;2023-01-24T11:32:19;24.60;54.80
55771;DHT22;41687;-33.234;-60.334;2023-01-24T11:35:21;24.90;55.40
55771;DHT22;41687;-33.234;-60.334;2023-01-24T11:41:10;25.30;54.30
55771;DHT22;41687;-33.234;-60.334;2023-01-24T11:43:56;25.40;54.10
55771;DHT22;41687;-33.234;-60.334;2023-01-24T11:54:26;25.60;53.30
55771;DHT22;41687;-33.234;-60.334;2023-01-24T12:22:21;26.90;51.30
55771;DHT22;41687;-33.234;-60.334;2023-01-24T12:25:23;26.60;52.10
55771;DHT22;41687;-33.234;-60.334;2023-01-24T12:28:05;26.90;51.80
55771;DHT22;41687;-33.234;-60.334;2023-01-24T12:30:53;27.10;50.80
55771;DHT22;41687;-33.234;-60.334;2023-01-24T12:33:52;27.40;51.50
55771;DHT22;41687;-33.234;-60.334;2023-01-24T12:36:44;27.50;51.10
55771;DHT22;41687;-33.234;-60.334;2023-01-24T12:39:20;27.80;49.80
55771;DHT22;41687;-33.234;-60.334;2023-01-24T12:42:01;27.80;51.10
55771;DHT22;41687;-33.234;-60.334;2023-01-24T12:44:37;27.60;50.20
55771;DHT22;41687;-33.234;-60.334;2023-01-24T12:50:24;28.50;49.80
55771;DHT22;41687;-33.234;-60.334;2023-01-24T12:55:44;28.90;49.10
55771;DHT22;41687;-33.234;-60.334;2023-01-24T12:58:37;28.80;50.40
55771;DHT22;41687;-33.234;-60.334;2023-01-24T13:03:48;28.70;49.10
55771;DHT22;41687;-33.234;-60.334;2023-01-24T13:11:28;29.30;47.50
55771;DHT22;41687;-33.234;-60.334;2023-01-24T13:16:59;29.60;48.40
55771;DHT22;41687;-33.234;-60.334;2023-01-24T13:19:56;29.60;46.40
55771;DHT22;41687;-33.234;-60.334;2023-01-24T13:25:26;29.80;46.50
55771;DHT22;41687;-33.234;-60.334;2023-01-24T13:28:29;29.80;47.70
55771;DHT22;41687;-33.234;-60.334;2023-01-24T13:31:13;29.80;46.40
55771;DHT22;41687;-33.234;-60.334;2023-01-24T13:34:33;29.90;46.70
55771;DHT22;41687;-33.234;-60.334;2023-01-24T13:36:41;29.50;46.90
55771;DHT22;41687;-33.234;-60.334;2023-01-24T13:42:35;30.40;44.70
55771;DHT22;41687;-33.234;-60.334;2023-01-24T13:47:54;30.50;45.50
55771;DHT22;41687;-33.234;-60.334;2023-01-24T13:50:24;31.00;46.30
55771;DHT22;41687;-33.234;-60.334;2023-01-24T13:52:57;31.50;45.20
55771;DHT22;41687;-33.234;-60.334;2023-01-24T14:00:28;31.90;44.20
55771;DHT22;41687;-33.234;-60.334;2023-01-24T14:13:42;32.40;44.70
55771;DHT22;41687;-33.234;-60.334;2023-01-24T14:28:15;33.20;44.70
55771;DHT22;41687;-33.234;-60.334;2023-01-24T14:30:54;33.20;42.10
55771;DHT22;41687;-33.234;-60.334;2023-01-24T14:39:18;34.00;42.50
55771;DHT22;41687;-33.234;-60.334;2023-01-24T14:41:59;33.90;42.10
55771;DHT22;41687;-33.234;-60.334;2023-01-24T14:44:31;34.20;44.20
55771;DHT22;41687;-33.234;-60.334;2023-01-24T14:49:35;33.90;43.30
55771;DHT22;41687;-33.234;-60.334;2023-01-24T14:55:01;34.50;43.60
55771;DHT22;41687;-33.234;-60.334;2023-01-24T14:57:32;34.70;44.70
55771;DHT22;41687;-33.234;-60.334;2023-01-24T15:00:32;34.70;44.70
55771;DHT22;41687;-33.234;-60.334;2023-01-24T15:02:56;34.90;45.20
55771;DHT22;41687;-33.234;-60.334;2023-01-24T15:05:34;35.20;44.00
55771;DHT22;41687;-33.234;-60.334;2023-01-24T15:08:12;35.40;45.20
55771;DHT22;41687;-33.234;-60.334;2023-01-24T15:10:42;35.20;42.50
55771;DHT22;41687;-33.234;-60.334;2023-01-24T15:13:32;35.30;43.30
55771;DHT22;41687;-33.234;-60.334;2023-01-24T15:16:00;35.50;43.10
55771;DHT22;41687;-33.234;-60.334;2023-01-24T15:23:54;35.00;45.20
55771;DHT22;41687;-33.234;-60.334;2023-01-24T15:26:36;34.90;45.10
55771;DHT22;41687;-33.234;-60.334;2023-01-24T15:32:22;34.20;43.60
55771;DHT22;41687;-33.234;-60.334;2023-01-24T15:35:33;33.70;45.70
55771;DHT22;41687;-33.234;-60.334;2023-01-24T15:40:36;32.90;47.10
55771;DHT22;41687;-33.234;-60.334;2023-01-24T15:43:10;32.50;47.50
55771;DHT22;41687;-33.234;-60.334;2023-01-24T15:49:21;32.00;47.80
55771;DHT22;41687;-33.234;-60.334;2023-01-24T15:54:45;31.70;47.70
55771;DHT22;41687;-33.234;-60.334;2023-01-24T15:57:23;31.80;48.10
55771;DHT22;41687;-33.234;-60.334;2023-01-24T16:02:38;31.70;49.10
55771;DHT22;41687;-33.234;-60.334;2023-01-24T16:05:12;31.50;49.30
55771;DHT22;41687;-33.234;-60.334;2023-01-24T16:07:41;31.20;50.50
55771;DHT22;41687;-33.234;-60.334;2023-01-24T16:10:15;30.80;50.40
55771;DHT22;41687;-33.234;-60.334;2023-01-24T16:12:44;30.60;51.80
55771;DHT22;41687;-33.234;-60.334;2023-01-24T16:15:16;30.30;52.30
55771;DHT22;41687;-33.234;-60.334;2023-01-24T16:17:44;30.10;53.10
55771;DHT22;41687;-33.234;-60.334;2023-01-24T16:20:24;29.90;53.00
55771;DHT22;41687;-33.234;-60.334;2023-01-24T16:22:54;29.80;53.70
55771;DHT22;41687;-33.234;-60.334;2023-01-24T16:25:23;29.60;53.50
55771;DHT22;41687;-33.234;-60.334;2023-01-24T16:27:51;29.60;54.00
55771;DHT22;41687;-33.234;-60.334;2023-01-24T16:30:21;29.60;54.10
55771;DHT22;41687;-33.234;-60.334;2023-01-24T16:32:50;29.70;53.80
55771;DHT22;41687;-33.234;-60.334;2023-01-24T16:35:18;29.80;52.90
55771;DHT22;41687;-33.234;-60.334;2023-01-24T16:37:46;30.20;52.30
55771;DHT22;41687;-33.234;-60.334;2023-01-24T16:40:16;30.40;53.00
55771;DHT22;41687;-33.234;-60.334;2023-01-24T16:42:46;30.70;52.80
55771;DHT22;41687;-33.234;-60.334;2023-01-24T16:45:18;30.90;51.10
55771;DHT22;41687;-33.234;-60.334;2023-01-24T16:47:47;31.10;50.10
55771;DHT22;41687;-33.234;-60.334;2023-01-24T16:50:15;31.10;50.10
55771;DHT22;41687;-33.234;-60.334;2023-01-24T16:52:43;31.00;50.30
55771;DHT22;41687;-33.234;-60.334;2023-01-24T16:55:11;30.80;50.20
55771;DHT22;41687;-33.234;-60.334;2023-01-24T16:57:39;30.70;50.10
55771;DHT22;41687;-33.234;-60.334;2023-01-24T17:00:09;30.60;50.30
55771;DHT22;41687;-33.234;-60.334;2023-01-24T17:02:41;30.60;50.40
55771;DHT22;41687;-33.234;-60.334;2023-01-24T17:05:10;30.50;50.50
55771;DHT22;41687;-33.234;-60.334;2023-01-24T17:07:38;30.40;50.30
55771;DHT22;41687;-33.234;-60.334;2023-01-24T17:10:06;30.40;50.20
55771;DHT22;41687;-33.234;-60.334;2023-01-24T17:12:34;30.20;49.80
55771;DHT22;41687;-33.234;-60.334;2023-01-24T17:15:02;30.10;49.40
55771;DHT22;41687;-33.234;-60.334;2023-01-24T17:17:30;29.90;49.30
55771;DHT22;41687;-33.234;-60.334;2023-01-24T17:19:57;29.70;49.20
55771;DHT22;41687;-33.234;-60.334;2023-01-24T17:22:26;29.60;49.20
55771;DHT22;41687;-33.234;-60.334;2023-01-24T17:24:53;29.50;49.20
55771;DHT22;41687;-33.234;-60.334;2023-01-24T17:27:22;29.50;49.00
55771;DHT22;41687;-33.234;-60.334;2023-01-24T17:29:49;29.40;48.90
55771;DHT22;41687;-33.234;-60.334;2023-01-24T17:32:18;29.40;48.60
55771;DHT22;41687;-33.234;-60.334;2023-01-24T17:34:45;29.40;49.10
55771;DHT22;41687;-33.234;-60.334;2023-01-24T17:37:14;29.40;48.70
55771;DHT22;41687;-33.234;-60.334;2023-01-24T17:39:41;29.40;48.90
55771;DHT22;41687;-33.234;-60.334;2023-01-24T17:42:09;29.40;48.90
55771;DHT22;41687;-33.234;-60.334;2023-01-24T17:44:37;29.40;48.80
55771;DHT22;41687;-33.234;-60.334;2023-01-24T17:47:05;29.40;48.90
55771;DHT22;41687;-33.234;-60.334;2023-01-24T17:49:33;29.50;48.90
55771;DHT22;41687;-33.234;-60.334;2023-01-24T17:52:02;29.50;48.50
55771;DHT22;41687;-33.234;-60.334;2023-01-24T17:54:29;29.60;48.80
55771;DHT22;41687;-33.234;-60.334;2023-01-24T17:56:58;29.60;48.70
55771;DHT22;41687;-33.234;-60.334;2023-01-24T17:59:26;29.70;48.00
55771;DHT22;41687;-33.234;-60.334;2023-01-24T18:01:53;29.90;48.00
55771;DHT22;41687;-33.234;-60.334;2023-01-24T18:04:21;30.00;47.70
55771;DHT22;41687;-33.234;-60.334;2023-01-24T18:06:49;29.90;47.20